Time;durP1;ratioP1;P1;durP2;ratioP2;P2;SDS_P1;SDS_P2;PMS_P1;PMS_P2;Temp;Humidity;BMP_temperature;BMP_pressure;BME280_temperature;BME280_humidity;BME280_pressure;Samples;Min_cycle;Max_cycle;Signal;HPM_P1;HPM_P2
2022/12/02 00:00:18;;;;;;;31.67;28.37;;;6.50;99.90;;;;;;4993411;28;20450;-73
2022/12/02 00:02:45;;;;;;;34.80;31.10;;;6.50;99.90;;;;;;4993592;28;20473;-72
2022/12/02 00:05:31;;;;;;;32.03;29.00;;;6.50;99.90;;;;;;4993265;28;20973;-73
2022/12/02 00:08:02;;;;;;;33.10;27.83;;;6.40;99.90;;;;;;4993254;28;20458;-73
2022/12/02 00:10:31;;;;;;;30.90;27.80;;;6.30;99.90;;;;;;4993285;28;20462;-72
2022/12/02 00:13:12;;;;;;;34.10;29.90;;;6.30;99.90;;;;;;4993404;28;20451;-72
2022/12/02 00:15:42;;;;;;;33.27;29.47;;;6.40;99.90;;;;;;4993323;28;20439;-73
2022/12/02 00:18:11;;;;;;;33.07;29.67;;;6.30;99.90;;;;;;4993140;28;20450;-73
2022/12/02 00:33:36;;;;;;;31.27;28.33;;;6.30;99.90;;;;;;5703501;23;20881;-75
2022/12/02 00:36:03;;;;;;;31.73;28.73;;;6.30;99.90;;;;;;4990969;28;20457;-74
2022/12/02 00:38:30;;;;;;;34.00;30.33;;;6.30;99.90;;;;;;4992615;28;20465;-74
2022/12/02 00:40:56;;;;;;;34.07;30.50;;;6.30;99.90;;;;;;4992397;28;20443;-75
2022/12/02 00:48:53;;;;;;;34.00;30.40;;;6.30;99.90;;;;;;4992425;28;20434;-73
2022/12/02 00:51:20;;;;;;;33.13;29.83;;;6.40;99.90;;;;;;4992426;28;20442;-74
2022/12/02 00:53:46;;;;;;;34.80;31.20;;;6.40;99.90;;;;;;4992326;28;20454;-74
2022/12/02 00:56:13;;;;;;;34.53;31.13;;;6.40;99.90;;;;;;4992158;28;20447;-74
2022/12/02 00:58:40;;;;;;;31.17;28.10;;;6.50;99.90;;;;;;4991960;28;21044;-73
2022/12/02 01:01:06;;;;;;;32.83;29.53;;;6.50;99.90;;;;;;4992122;28;20451;-74
2022/12/02 01:03:33;;;;;;;31.40;28.20;;;6.40;99.90;;;;;;4992146;28;21007;-73
2022/12/02 01:06:01;;;;;;;33.77;29.40;;;6.50;99.90;;;;;;4992047;28;21016;-73
2022/12/02 01:08:28;;;;;;;39.03;31.47;;;6.40;99.90;;;;;;4991768;28;20447;-74
2022/12/02 01:10:56;;;;;;;34.00;30.50;;;6.50;99.90;;;;;;4991906;28;20658;-74
2022/12/02 01:13:24;;;;;;;35.10;31.20;;;6.50;99.90;;;;;;4991782;28;20451;-73
2022/12/02 01:15:50;;;;;;;34.70;30.93;;;6.50;99.90;;;;;;4992133;28;20443;-74
2022/12/02 01:18:18;;;;;;;33.73;30.27;;;6.40;99.90;;;;;;4991832;28;20447;-73
2022/12/02 01:20:45;;;;;;;32.97;29.63;;;6.50;99.90;;;;;;4991827;28;20443;-74
2022/12/02 01:23:13;;;;;;;33.77;29.53;;;6.40;99.90;;;;;;4991573;28;20949;-73
2022/12/02 01:25:40;;;;;;;32.10;28.80;;;6.40;99.90;;;;;;4991489;28;20487;-74
2022/12/02 01:28:07;;;;;;;33.70;30.33;;;6.40;99.90;;;;;;4991766;28;20443;-73
2022/12/02 01:30:34;;;;;;;33.97;30.40;;;6.40;99.90;;;;;;4991622;28;20447;-74
2022/12/02 01:33:00;;;;;;;35.17;31.57;;;6.50;99.90;;;;;;4991124;28;20475;-74
2022/12/02 01:35:27;;;;;;;34.60;30.93;;;6.50;99.90;;;;;;4991378;28;20450;-73
2022/12/02 01:37:54;;;;;;;33.40;29.90;;;6.50;99.90;;;;;;4991311;28;20453;-73
2022/12/02 01:40:22;;;;;;;33.13;29.17;;;6.60;99.90;;;;;;4991564;28;20453;-73
2022/12/02 01:42:49;;;;;;;38.50;30.87;;;6.60;99.90;;;;;;4991471;28;20454;-74
2022/12/02 01:45:17;;;;;;;32.10;28.90;;;6.60;99.90;;;;;;4991235;28;21062;-74
2022/12/02 01:47:44;;;;;;;33.93;30.30;;;6.60;99.90;;;;;;4991115;28;20806;-74
2022/12/02 01:50:14;;;;;;;34.50;30.87;;;6.50;99.90;;;;;;4990707;28;20477;-73
2022/12/02 01:52:41;;;;;;;32.00;29.00;;;6.50;99.90;;;;;;4991269;28;20952;-75
2022/12/02 01:55:13;;;;;;;33.43;29.83;;;6.60;99.90;;;;;;4990988;28;20451;-73
2022/12/02 01:57:41;;;;;;;33.20;29.67;;;6.50;99.90;;;;;;4991069;28;20447;-74
2022/12/02 02:00:09;;;;;;;33.37;29.90;;;6.50;99.90;;;;;;4990962;28;20466;-75
2022/12/02 02:02:37;;;;;;;32.30;29.20;;;6.40;99.90;;;;;;4990860;28;20458;-75
2022/12/02 02:05:07;;;;;;;34.07;30.50;;;6.40;99.90;;;;;;4990993;28;20493;-75
2022/12/02 02:07:35;;;;;;;31.00;27.87;;;6.40;99.90;;;;;;4991482;28;20462;-74
2022/12/02 02:10:02;;;;;;;33.73;30.07;;;6.50;99.90;;;;;;4991315;28;20451;-74
2022/12/02 02:12:30;;;;;;;34.27;31.00;;;6.50;99.90;;;;;;4990781;28;20831;-74
2022/12/02 02:14:58;;;;;;;31.30;28.20;;;6.50;99.90;;;;;;4990945;28;20535;-74
2022/12/02 02:17:25;;;;;;;32.10;29.00;;;6.50;99.90;;;;;;4990473;28;20503;-74
2022/12/02 02:19:52;;;;;;;31.23;28.07;;;6.50;99.90;;;;;;4990697;28;20451;-74
2022/12/02 02:22:23;;;;;;;33.87;29.07;;;6.50;99.90;;;;;;4990858;28;20477;-74
2022/12/02 02:24:51;;;;;;;31.20;28.10;;;6.50;99.90;;;;;;4990543;28;20446;-74
2022/12/02 02:27:18;;;;;;;31.93;28.63;;;6.50;99.90;;;;;;4990763;28;20447;-75
2022/12/02 02:29:45;;;;;;;34.60;30.80;;;6.40;99.90;;;;;;4990707;28;20453;-74
2022/12/02 02:32:12;;;;;;;31.70;28.40;;;6.30;99.90;;;;;;4990201;28;20501;-75
2022/12/02 02:34:38;;;;;;;34.07;30.40;;;6.30;99.90;;;;;;4990296;28;20485;-74
2022/12/02 02:37:05;;;;;;;32.47;29.37;;;6.20;99.90;;;;;;4990494;28;20538;-74
2022/12/02 02:39:32;;;;;;;32.70;29.60;;;6.20;99.90;;;;;;4990511;28;20461;-74
2022/12/02 02:42:00;;;;;;;32.80;29.50;;;6.10;99.90;;;;;;4990104;28;20466;-73
2022/12/02 02:44:29;;;;;;;35.83;32.03;;;6.10;99.90;;;;;;4990344;28;20469;-74
2022/12/02 02:46:56;;;;;;;34.90;31.37;;;6.20;99.90;;;;;;4989920;28;20850;-74
2022/12/02 02:49:23;;;;;;;36.07;30.97;;;6.10;99.90;;;;;;4990021;28;20455;-74
2022/12/02 02:51:50;;;;;;;34.73;31.37;;;6.20;99.90;;;;;;4990116;28;20450;-74
2022/12/02 05:59:41;;;;;;;47.33;36.70;;;5.80;99.90;;;;;;5376904;23;20495;-74
2022/12/02 06:02:23;;;;;;;40.37;36.77;;;5.70;99.90;;;;;;4988416;28;20454;-72
2022/12/02 06:04:50;;;;;;;42.77;36.70;;;5.80;99.90;;;;;;4990459;28;20450;-71
2022/12/02 06:07:17;;;;;;;44.53;40.07;;;5.80;99.90;;;;;;4990030;28;20771;-71
2022/12/02 06:09:44;;;;;;;41.30;37.40;;;5.80;99.90;;;;;;4990337;28;20470;-72
2022/12/02 06:12:16;;;;;;;44.43;40.13;;;5.70;99.90;;;;;;4991002;28;20455;-72
2022/12/02 06:14:48;;;;;;;44.63;40.50;;;5.70;99.90;;;;;;4990841;28;20563;-72
2022/12/02 06:17:18;;;;;;;45.47;41.07;;;5.70;99.90;;;;;;4990528;28;20451;-73
2022/12/02 06:19:47;;;;;;;44.77;40.47;;;5.80;99.90;;;;;;4990319;28;20473;-73
2022/12/02 06:22:18;;;;;;;43.40;39.10;;;5.70;99.90;;;;;;4990046;28;20446;-73
2022/12/02 06:24:45;;;;;;;45.37;40.57;;;5.80;99.90;;;;;;4990079;28;20447;-72
2022/12/02 06:27:14;;;;;;;46.17;41.87;;;5.80;99.90;;;;;;4989613;28;20859;-71
2022/12/02 06:29:47;;;;;;;46.27;41.67;;;5.80;99.90;;;;;;4989602;28;20454;-72
2022/12/02 06:32:18;;;;;;;49.17;43.90;;;5.70;99.90;;;;;;4989830;28;20450;-71
2022/12/02 06:34:46;;;;;;;45.80;41.63;;;5.70;99.90;;;;;;4990497;28;20953;-71
2022/12/02 06:37:18;;;;;;;44.43;39.93;;;5.70;99.90;;;;;;4990494;28;20443;-71
2022/12/02 06:39:46;;;;;;;47.13;42.60;;;5.80;99.90;;;;;;4990438;28;20703;-72
2022/12/02 06:42:21;;;;;;;46.97;42.20;;;5.80;99.90;;;;;;4989928;28;20455;-72
2022/12/02 06:45:05;;;;;;;45.67;41.07;;;5.80;99.90;;;;;;4989840;28;20452;-72
2022/12/02 06:47:48;;;;;;;48.33;43.43;;;5.90;99.90;;;;;;4989861;28;20487;-71
2022/12/02 06:50:25;;;;;;;50.97;45.27;;;5.80;99.90;;;;;;4990031;28;20477;-72
2022/12/02 06:52:52;;;;;;;49.27;42.80;;;5.70;99.90;;;;;;4990104;28;20454;-73
2022/12/02 06:55:29;;;;;;;48.30;43.43;;;5.70;99.90;;;;;;4989648;28;20462;-72
2022/12/02 06:57:59;;;;;;;44.80;40.40;;;5.80;99.90;;;;;;4989910;28;20488;-71
2022/12/02 07:00:27;;;;;;;49.23;44.60;;;5.70;99.90;;;;;;4989636;28;20481;-71
2022/12/02 07:02:54;;;;;;;48.40;42.93;;;5.70;99.90;;;;;;4989923;28;20454;-72
2022/12/02 07:05:22;;;;;;;48.43;43.43;;;5.70;99.90;;;;;;4989694;28;20453;-71
2022/12/02 07:07:49;;;;;;;48.50;43.60;;;5.70;99.90;;;;;;4989870;28;20499;-71
2022/12/02 07:10:21;;;;;;;49.63;44.37;;;5.70;99.90;;;;;;4989655;28;20451;-71
2022/12/02 07:12:48;;;;;;;49.10;44.23;;;5.70;99.90;;;;;;4989686;28;20463;-71
2022/12/02 07:15:26;;;;;;;48.40;43.60;;;5.70;99.90;;;;;;4989834;28;20823;-71
2022/12/02 07:17:57;;;;;;;47.07;42.20;;;5.70;99.90;;;;;;4990468;28;20450;-71
2022/12/02 07:20:31;;;;;;;48.10;43.50;;;5.70;99.90;;;;;;4990316;28;20469;-70
2022/12/02 07:23:00;;;;;;;52.37;43.47;;;5.70;99.90;;;;;;4989660;28;20943;-71
2022/12/02 07:25:35;;;;;;;48.63;43.53;;;5.70;99.90;;;;;;4989738;28;20559;-70
2022/12/02 07:28:09;;;;;;;49.53;44.03;;;5.70;99.90;;;;;;4989509;28;20450;-70
2022/12/02 07:30:41;;;;;;;47.57;42.57;;;5.70;99.90;;;;;;4989963;28;20459;-70
2022/12/02 07:33:09;;;;;;;46.57;41.90;;;5.60;99.90;;;;;;4989914;28;20459;-71
2022/12/02 07:35:36;;;;;;;46.50;42.03;;;5.70;99.90;;;;;;4989651;28;20446;-71
2022/12/02 07:38:03;;;;;;;48.60;43.57;;;5.60;99.90;;;;;;4989387;28;20451;-70
2022/12/02 07:40:29;;;;;;;44.83;40.43;;;5.70;99.90;;;;;;4989244;28;20469;-70
2022/12/02 07:42:56;;;;;;;49.97;44.30;;;5.80;99.90;;;;;;4989401;28;20455;-71
2022/12/02 07:45:23;;;;;;;48.87;43.87;;;5.80;99.90;;;;;;4989594;28;20458;-72
2022/12/02 07:47:50;;;;;;;49.97;44.57;;;5.80;99.90;;;;;;4992074;28;20481;-72
2022/12/02 07:50:18;;;;;;;46.47;41.27;;;5.90;99.90;;;;;;4993029;28;20541;-72
2022/12/02 07:52:45;;;;;;;48.53;43.30;;;5.90;99.90;;;;;;4992976;28;20542;-71
2022/12/02 07:55:12;;;;;;;46.83;42.30;;;5.90;99.90;;;;;;4992954;28;20458;-72
2022/12/02 07:57:39;;;;;;;50.03;45.03;;;5.90;99.90;;;;;;4993232;28;20813;-73
2022/12/02 08:00:07;;;;;;;51.57;42.80;;;5.90;99.90;;;;;;4993126;28;20570;-72
2022/12/02 08:02:34;;;;;;;47.10;42.50;;;5.90;99.90;;;;;;4992434;28;20714;-72
2022/12/02 08:05:01;;;;;;;48.30;43.50;;;5.90;99.90;;;;;;4992829;28;20695;-73
2022/12/02 08:07:29;;;;;;;46.57;41.67;;;6.00;99.90;;;;;;4992438;28;20482;-72
2022/12/02 08:09:55;;;;;;;55.47;43.77;;;6.00;99.90;;;;;;4992673;28;20458;-73
2022/12/02 08:12:22;;;;;;;49.33;44.10;;;6.00;99.90;;;;;;4992609;28;20504;-72
2022/12/02 08:14:49;;;;;;;52.83;47.30;;;6.10;99.90;;;;;;4992424;28;20450;-73
2022/12/02 08:17:16;;;;;;;54.87;49.27;;;6.10;99.90;;;;;;4992513;28;20469;-73
2022/12/02 08:19:42;;;;;;;50.70;45.43;;;6.10;99.90;;;;;;4992321;28;20451;-73
2022/12/02 08:22:09;;;;;;;54.37;48.50;;;6.10;99.90;;;;;;4992751;28;20817;-73
2022/12/02 08:24:37;;;;;;;53.93;48.50;;;6.10;99.90;;;;;;4992338;28;20442;-73
2022/12/02 08:27:04;;;;;;;53.47;47.67;;;6.20;99.90;;;;;;4992383;28;20825;-73
2022/12/02 08:29:31;;;;;;;53.27;47.47;;;6.20;99.90;;;;;;4992382;28;20457;-72
2022/12/02 08:31:58;;;;;;;57.17;51.30;;;6.20;99.90;;;;;;4992316;28;20458;-72
2022/12/02 08:34:24;;;;;;;52.90;47.40;;;6.30;99.90;;;;;;4992486;28;20457;-73
2022/12/02 08:36:51;;;;;;;52.03;47.10;;;6.30;99.90;;;;;;4992298;28;20447;-72
2022/12/02 08:39:18;;;;;;;55.33;49.67;;;6.30;99.90;;;;;;4992008;28;20513;-73
2022/12/02 08:41:46;;;;;;;55.40;49.50;;;6.30;99.90;;;;;;4992025;28;20458;-73
2022/12/02 08:44:13;;;;;;;54.87;49.60;;;6.40;99.90;;;;;;4992133;28;20457;-72
2022/12/02 08:46:40;;;;;;;53.00;47.57;;;6.50;99.90;;;;;;4992453;28;20493;-74
2022/12/02 08:49:06;;;;;;;53.03;48.03;;;6.40;99.90;;;;;;4992448;28;20713;-74
2022/12/02 08:51:33;;;;;;;64.30;50.00;;;6.40;99.90;;;;;;4991948;28;20718;-74
2022/12/02 08:54:01;;;;;;;55.30;48.90;;;6.50;99.90;;;;;;4991629;28;20469;-72
2022/12/02 08:56:27;;;;;;;53.40;48.20;;;6.60;99.90;;;;;;4991732;28;20443;-73
2022/12/02 08:58:56;;;;;;;53.60;48.10;;;6.50;99.90;;;;;;4990173;28;20494;-73
2022/12/02 09:01:22;;;;;;;55.10;49.43;;;6.40;99.90;;;;;;4991776;28;20922;-72
2022/12/02 09:03:49;;;;;;;55.20;48.60;;;6.40;99.90;;;;;;4982051;28;20452;-72
2022/12/02 09:06:16;;;;;;;52.87;47.77;;;6.40;99.90;;;;;;4970389;28;20444;-72
2022/12/02 09:08:42;;;;;;;53.73;48.07;;;6.30;99.90;;;;;;4971810;28;20453;-73
2022/12/02 09:11:09;;;;;;;51.20;46.10;;;6.30;99.90;;;;;;4972145;28;20455;-72
2022/12/02 09:13:36;;;;;;;49.57;44.37;;;6.20;99.90;;;;;;4971761;28;20789;-72
2022/12/02 09:16:05;;;;;;;52.80;47.73;;;6.30;99.90;;;;;;4971493;28;20443;-73
2022/12/02 09:18:32;;;;;;;52.83;47.70;;;6.40;99.90;;;;;;4971737;28;20460;-74
2022/12/02 09:20:58;;;;;;;53.13;47.90;;;6.50;99.90;;;;;;4971770;28;20448;-72
2022/12/02 09:23:27;;;;;;;49.90;44.80;;;6.30;99.90;;;;;;4977651;28;20459;-73
2022/12/02 09:25:54;;;;;;;49.57;44.47;;;6.30;99.90;;;;;;4975592;28;20550;-72
2022/12/02 09:28:22;;;;;;;50.00;45.00;;;6.20;99.90;;;;;;4972739;28;20487;-72
2022/12/02 09:30:49;;;;;;;49.07;44.23;;;6.40;99.90;;;;;;4972177;28;20456;-72
2022/12/02 09:33:17;;;;;;;52.27;46.83;;;6.40;99.90;;;;;;4972272;28;20462;-72
2022/12/02 09:35:44;;;;;;;49.83;44.70;;;6.30;99.90;;;;;;4971780;28;20561;-73
2022/12/02 09:38:11;;;;;;;50.80;45.53;;;6.20;99.90;;;;;;4968224;28;20450;-72
2022/12/02 09:40:38;;;;;;;47.77;43.00;;;6.30;99.90;;;;;;4971905;28;20498;-73
2022/12/02 09:43:05;;;;;;;50.03;45.13;;;6.20;99.90;;;;;;4970576;28;20448;-73
2022/12/02 09:45:32;;;;;;;47.93;43.47;;;6.20;99.90;;;;;;4971823;28;20686;-73
2022/12/02 09:47:59;;;;;;;44.57;40.97;;;6.10;99.90;;;;;;4971599;28;20483;-73
2022/12/02 09:50:27;;;;;;;47.03;42.73;;;6.20;99.90;;;;;;4971495;28;20925;-72
2022/12/02 09:53:02;;;;;;;46.77;42.33;;;6.20;99.90;;;;;;4971693;28;20452;-74
2022/12/02 09:55:29;;;;;;;47.23;42.43;;;6.10;99.90;;;;;;4971514;28;20810;-72
2022/12/02 09:57:56;;;;;;;46.37;42.47;;;6.10;99.90;;;;;;4971094;28;20841;-72
2022/12/02 10:00:23;;;;;;;44.03;39.80;;;6.10;99.90;;;;;;4971063;28;20480;-72
2022/12/02 10:02:51;;;;;;;46.00;41.93;;;6.10;99.90;;;;;;4971433;28;20456;-72
2022/12/02 10:05:21;;;;;;;47.33;43.30;;;6.20;99.90;;;;;;4971241;28;20456;-71
2022/12/02 10:07:51;;;;;;;45.23;41.53;;;6.10;99.90;;;;;;4973865;28;20498;-71
2022/12/02 10:10:20;;;;;;;46.77;42.60;;;6.00;99.90;;;;;;4972475;28;20452;-73
2022/12/02 10:12:47;;;;;;;42.83;39.53;;;6.10;99.90;;;;;;4971885;28;20997;-71
2022/12/02 10:15:17;;;;;;;44.07;40.30;;;6.10;99.90;;;;;;4971637;28;20451;-72
2022/12/02 10:17:46;;;;;;;46.17;42.17;;;6.20;99.90;;;;;;4971639;28;20455;-73
2022/12/02 10:20:18;;;;;;;44.30;40.50;;;6.20;99.90;;;;;;4970543;28;20452;-72
2022/12/02 10:23:08;;;;;;;43.40;39.07;;;6.20;99.90;;;;;;4970474;28;20460;-71
2022/12/02 10:25:35;;;;;;;44.23;40.33;;;6.30;99.90;;;;;;4970569;28;20444;-74
2022/12/02 10:28:02;;;;;;;45.10;41.20;;;6.30;99.90;;;;;;4970209;28;20519;-73
2022/12/02 10:30:30;;;;;;;43.50;40.00;;;6.10;99.90;;;;;;4970304;28;20452;-73
2022/12/02 10:33:00;;;;;;;43.63;40.00;;;6.00;99.90;;;;;;4970502;28;20458;-72
2022/12/02 10:35:27;;;;;;;45.43;41.77;;;6.10;99.90;;;;;;4970400;28;20967;-73
2022/12/02 10:37:55;;;;;;;45.40;41.70;;;6.10;99.90;;;;;;4970761;28;20458;-73
2022/12/02 10:40:24;;;;;;;42.07;38.97;;;6.10;99.90;;;;;;4970735;28;20454;-73
2022/12/02 10:43:08;;;;;;;41.43;38.23;;;6.10;99.90;;;;;;4970736;28;20450;-73
2022/12/02 10:45:35;;;;;;;42.27;38.90;;;6.10;99.90;;;;;;4970283;28;20486;-72
2022/12/02 10:48:12;;;;;;;42.93;39.13;;;6.00;99.90;;;;;;4970021;28;20537;-72
2022/12/02 10:50:39;;;;;;;41.23;37.93;;;6.10;99.90;;;;;;4970473;28;20451;-72
2022/12/02 10:53:13;;;;;;;41.87;38.27;;;6.10;99.90;;;;;;4970267;28;20456;-73
2022/12/02 10:55:42;;;;;;;43.83;40.40;;;6.20;99.90;;;;;;4971016;28;20452;-72
2022/12/02 10:58:12;;;;;;;41.67;38.37;;;6.10;99.90;;;;;;4970546;28;20464;-73
2022/12/02 11:00:39;;;;;;;43.07;39.63;;;6.20;99.90;;;;;;4970717;28;20443;-73
2022/12/02 11:03:06;;;;;;;43.97;40.17;;;6.30;99.90;;;;;;4970138;28;20452;-74
2022/12/02 11:05:36;;;;;;;41.37;38.30;;;6.20;99.90;;;;;;4970252;28;20551;-73
2022/12/02 11:08:05;;;;;;;40.87;37.57;;;6.20;99.90;;;;;;4970162;28;20827;-73
2022/12/02 11:10:35;;;;;;;44.67;40.47;;;6.20;99.90;;;;;;4969965;28;20457;-72
2022/12/02 11:13:47;;;;;;;40.30;36.97;;;6.20;99.90;;;;;;4970085;28;20454;-72
2022/12/02 11:16:46;;;;;;;41.53;38.33;;;6.30;99.90;;;;;;4970043;28;20482;-72
2022/12/02 11:19:46;;;;;;;43.30;39.73;;;6.20;99.90;;;;;;4970423;28;20476;-72
2022/12/02 11:23:04;;;;;;;39.53;36.60;;;6.20;99.90;;;;;;4969694;28;20522;-73
2022/12/02 11:26:06;;;;;;;40.93;37.77;;;6.30;99.90;;;;;;4970264;28;20451;-74
2022/12/02 11:28:46;;;;;;;41.23;37.73;;;6.30;99.90;;;;;;4970338;28;20491;-74
2022/12/02 11:31:31;;;;;;;39.87;36.77;;;6.20;99.90;;;;;;4969890;28;20934;-75
2022/12/02 11:34:30;;;;;;;40.93;37.93;;;6.20;99.90;;;;;;4969586;28;20479;-75
2022/12/02 11:37:35;;;;;;;40.90;37.70;;;6.20;99.90;;;;;;4968950;28;20938;-74
2022/12/02 11:40:05;;;;;;;39.57;36.80;;;6.20;99.90;;;;;;4969603;28;20451;-73
2022/12/02 11:42:33;;;;;;;41.23;37.93;;;6.20;99.90;;;;;;4969622;28;20455;-73
2022/12/02 11:45:41;;;;;;;39.93;37.03;;;6.20;99.90;;;;;;4969768;28;20447;-75
2022/12/02 11:48:16;;;;;;;39.10;35.87;;;6.20;99.90;;;;;;4953259;28;20483;-73
2022/12/02 11:50:43;;;;;;;41.60;37.83;;;6.30;99.90;;;;;;4969638;28;20534;-72
2022/12/02 11:53:14;;;;;;;40.70;37.70;;;6.10;99.90;;;;;;4969919;28;20498;-75
2022/12/02 11:55:43;;;;;;;43.30;40.00;;;6.00;99.90;;;;;;4969726;28;20545;-75
2022/12/02 11:58:18;;;;;;;39.50;36.40;;;6.10;99.90;;;;;;4988329;28;20561;-74
2022/12/02 12:01:01;;;;;;;42.53;39.30;;;6.10;99.90;;;;;;4986981;28;20696;-74
2022/12/02 12:03:29;;;;;;;44.90;40.73;;;6.10;99.90;;;;;;4987206;28;20538;-73
2022/12/02 12:06:08;;;;;;;42.00;38.93;;;6.10;99.90;;;;;;4987194;28;20450;-74
2022/12/02 12:08:35;;;;;;;37.47;34.60;;;6.10;99.90;;;;;;4988587;28;20497;-74
2022/12/02 12:11:25;;;;;;;39.40;36.57;;;6.10;99.90;;;;;;4988570;28;20654;-77
2022/12/02 12:14:00;;;;;;;39.00;36.00;;;6.00;99.90;;;;;;4988880;28;20799;-75
2022/12/02 12:16:27;;;;;;;39.00;36.17;;;5.90;99.90;;;;;;4988527;28;20457;-75
2022/12/02 12:18:55;;;;;;;37.97;35.33;;;6.00;99.90;;;;;;4988892;28;20462;-73
2022/12/02 12:21:45;;;;;;;38.63;35.83;;;6.10;99.90;;;;;;4988757;28;20451;-75
2022/12/02 12:24:32;;;;;;;35.10;32.60;;;6.10;99.90;;;;;;4988437;28;20517;-75
2022/12/02 12:27:11;;;;;;;37.47;34.77;;;6.10;99.90;;;;;;4988246;28;20504;-73
2022/12/02 12:29:39;;;;;;;37.90;35.03;;;5.90;99.90;;;;;;4988719;28;20453;-75
2022/12/02 12:32:08;;;;;;;39.03;36.33;;;5.80;99.90;;;;;;4988573;28;20450;-74
2022/12/02 12:34:36;;;;;;;37.40;34.70;;;5.80;99.90;;;;;;4992248;28;20824;-75
2022/12/02 12:37:03;;;;;;;39.57;36.60;;;5.80;99.90;;;;;;4992007;28;20457;-75
2022/12/02 12:39:29;;;;;;;35.20;33.00;;;5.90;99.90;;;;;;4991786;28;20532;-73
2022/12/02 12:41:56;;;;;;;36.67;34.17;;;5.90;99.90;;;;;;4991879;28;20450;-73
2022/12/02 12:44:23;;;;;;;35.63;33.23;;;5.90;99.90;;;;;;4990172;28;20450;-73
2022/12/02 12:46:49;;;;;;;36.93;34.50;;;5.90;99.90;;;;;;4990125;28;20843;-74
2022/12/02 12:49:16;;;;;;;37.30;34.67;;;6.00;99.90;;;;;;4991498;28;20482;-73
2022/12/02 12:51:44;;;;;;;35.50;33.20;;;6.10;99.90;;;;;;4991594;28;20565;-73
2022/12/02 12:54:11;;;;;;;37.37;34.63;;;6.10;99.90;;;;;;4992010;28;20952;-73
2022/12/02 12:56:38;;;;;;;37.13;34.60;;;6.10;99.90;;;;;;4992131;28;20462;-74
2022/12/02 12:59:04;;;;;;;34.43;32.10;;;6.00;99.90;;;;;;4991488;28;20471;-73
2022/12/02 13:01:31;;;;;;;36.70;34.50;;;6.10;99.90;;;;;;4991614;28;20450;-73
2022/12/02 13:03:58;;;;;;;35.97;33.27;;;6.10;99.90;;;;;;4991598;28;20454;-74
2022/12/02 13:06:24;;;;;;;35.77;33.47;;;6.10;99.90;;;;;;4991560;28;20458;-74
2022/12/02 13:08:53;;;;;;;36.87;34.57;;;6.10;99.90;;;;;;4991465;28;20582;-73
2022/12/02 13:11:19;;;;;;;35.27;32.67;;;6.10;99.90;;;;;;4991288;28;20451;-73
2022/12/02 13:13:46;;;;;;;38.40;35.90;;;6.20;99.90;;;;;;4991267;28;20925;-73
2022/12/02 13:16:13;;;;;;;38.77;35.90;;;6.00;99.90;;;;;;4991417;28;20466;-75
2022/12/02 13:18:39;;;;;;;35.57;33.03;;;6.00;99.90;;;;;;4991603;28;20447;-74
2022/12/02 13:21:06;;;;;;;37.20;34.60;;;6.10;99.90;;;;;;4991511;28;20541;-73
2022/12/02 13:23:33;;;;;;;36.63;34.10;;;6.10;99.90;;;;;;4991303;28;20461;-73
2022/12/02 13:26:01;;;;;;;35.37;33.13;;;6.20;99.90;;;;;;4991179;28;20447;-73
2022/12/02 13:28:28;;;;;;;38.00;35.50;;;6.10;99.90;;;;;;4991059;28;20478;-72
2022/12/02 13:30:54;;;;;;;37.20;34.90;;;6.10;99.90;;;;;;4991383;28;20454;-73
2022/12/02 13:33:22;;;;;;;38.07;35.57;;;6.20;99.90;;;;;;4991280;28;20458;-74
2022/12/02 13:35:48;;;;;;;37.27;34.80;;;6.10;99.90;;;;;;4990762;28;20450;-73
2022/12/02 13:38:15;;;;;;;35.60;33.30;;;6.20;99.90;;;;;;4991187;28;20447;-74
2022/12/02 13:40:42;;;;;;;34.70;32.50;;;6.20;99.90;;;;;;4991381;28;20505;-73
2022/12/02 13:43:10;;;;;;;34.70;32.50;;;6.20;99.90;;;;;;4991879;28;20451;-74
2022/12/02 13:45:38;;;;;;;36.10;33.83;;;6.20;99.90;;;;;;4990901;28;20498;-72
2022/12/02 13:48:05;;;;;;;35.67;33.47;;;6.20;99.90;;;;;;4991008;28;20545;-72
2022/12/02 13:50:32;;;;;;;36.53;34.17;;;6.20;99.90;;;;;;4990828;28;20794;-72
2022/12/02 13:52:59;;;;;;;35.97;33.60;;;6.10;99.90;;;;;;4991122;28;20443;-72
2022/12/02 13:55:26;;;;;;;35.93;33.60;;;6.10;99.90;;;;;;4990941;28;20935;-73
2022/12/02 13:57:52;;;;;;;37.73;35.27;;;6.00;99.90;;;;;;4990667;28;20996;-73
2022/12/02 14:00:21;;;;;;;34.67;32.57;;;6.10;99.90;;;;;;4990533;28;20500;-74
2022/12/02 14:02:47;;;;;;;35.30;33.40;;;6.00;99.90;;;;;;4990899;28;20792;-73
2022/12/02 14:05:14;;;;;;;34.90;32.73;;;6.10;99.90;;;;;;4990685;28;20451;-74
2022/12/02 14:07:41;;;;;;;36.03;33.90;;;6.20;99.90;;;;;;4990612;28;20798;-73
2022/12/02 14:10:09;;;;;;;35.43;33.13;;;6.10;99.90;;;;;;4990611;28;20450;-73
2022/12/02 14:12:36;;;;;;;37.70;35.30;;;6.20;99.90;;;;;;4990523;28;20446;-73
2022/12/02 14:15:03;;;;;;;36.20;33.70;;;6.10;99.90;;;;;;4990173;28;20446;-73
2022/12/02 14:17:31;;;;;;;35.67;33.43;;;6.20;99.90;;;;;;4990062;28;20473;-73
2022/12/02 14:19:58;;;;;;;33.80;31.70;;;6.10;99.90;;;;;;4990180;28;20453;-73
2022/12/02 14:22:25;;;;;;;34.40;31.70;;;6.00;99.90;;;;;;4990356;28;20451;-72
2022/12/02 14:24:51;;;;;;;34.30;32.20;;;6.00;99.90;;;;;;4990293;28;20447;-74
2022/12/02 14:27:18;;;;;;;34.27;32.03;;;5.90;99.90;;;;;;4989858;28;20454;-72
2022/12/02 14:29:45;;;;;;;34.80;32.60;;;5.90;99.90;;;;;;4989838;28;20680;-72
2022/12/02 14:32:11;;;;;;;32.90;30.90;;;5.90;99.90;;;;;;4990121;28;20446;-73
2022/12/02 14:34:39;;;;;;;34.10;31.90;;;5.80;99.90;;;;;;4989824;28;20461;-72
2022/12/02 14:37:06;;;;;;;35.53;33.40;;;5.80;99.90;;;;;;4989992;28;20458;-72
2022/12/02 14:39:33;;;;;;;34.27;32.10;;;5.90;99.90;;;;;;4989980;28;20458;-72
2022/12/02 14:42:00;;;;;;;36.60;34.20;;;5.90;99.90;;;;;;4989673;28;20470;-74
2022/12/02 14:44:26;;;;;;;33.73;31.67;;;5.90;99.90;;;;;;4989883;28;20443;-72
2022/12/02 14:46:53;;;;;;;34.93;32.63;;;5.80;99.90;;;;;;4989835;28;20490;-72
2022/12/02 14:49:20;;;;;;;32.97;30.73;;;5.60;99.90;;;;;;4989822;28;20490;-73
2022/12/02 14:51:48;;;;;;;31.67;29.47;;;5.50;99.90;;;;;;4989615;28;20477;-73
2022/12/02 14:54:15;;;;;;;33.30;31.20;;;5.40;99.90;;;;;;4989612;28;20642;-73
2022/12/02 14:56:41;;;;;;;33.77;31.73;;;5.40;99.90;;;;;;4989469;28;20451;-73
2022/12/02 14:59:08;;;;;;;35.23;32.93;;;5.50;99.90;;;;;;4989539;28;20485;-73
2022/12/02 15:01:35;;;;;;;35.43;32.83;;;5.50;99.90;;;;;;4989171;28;20444;-73
2022/12/02 15:04:01;;;;;;;35.20;32.80;;;5.50;99.90;;;;;;4989430;28;20476;-74
2022/12/02 15:06:28;;;;;;;35.83;33.53;;;5.40;99.90;;;;;;4989354;28;20472;-72
2022/12/02 15:08:56;;;;;;;34.50;32.40;;;5.50;99.90;;;;;;4989473;28;20490;-73
2022/12/02 15:11:23;;;;;;;33.63;31.33;;;5.40;99.90;;;;;;4989584;28;20446;-73
2022/12/02 15:13:50;;;;;;;33.90;31.73;;;5.40;99.90;;;;;;4989294;28;20466;-73
2022/12/02 15:16:16;;;;;;;32.90;30.90;;;5.50;99.90;;;;;;4989334;28;20450;-72
2022/12/02 15:18:43;;;;;;;33.70;31.43;;;5.40;99.90;;;;;;4989227;28;20446;-72
2022/12/02 15:21:10;;;;;;;32.07;30.07;;;5.40;99.90;;;;;;4989442;28;20447;-72
2022/12/02 15:23:36;;;;;;;34.20;32.00;;;5.30;99.90;;;;;;4989241;28;20466;-73
2022/12/02 15:26:04;;;;;;;34.63;32.47;;;5.40;99.90;;;;;;4989016;28;20443;-74
2022/12/02 15:28:31;;;;;;;33.50;31.27;;;5.50;99.90;;;;;;4988929;28;20482;-71
2022/12/02 15:30:58;;;;;;;33.93;31.60;;;5.50;99.90;;;;;;4989232;28;20457;-72
2022/12/02 15:33:25;;;;;;;33.83;31.37;;;5.60;99.90;;;;;;4989401;28;20967;-72
2022/12/02 15:35:51;;;;;;;34.03;31.93;;;5.50;99.90;;;;;;4989280;28;20458;-72
2022/12/02 15:38:18;;;;;;;35.10;32.80;;;5.50;99.90;;;;;;4989135;28;20450;-73
2022/12/02 15:40:45;;;;;;;33.43;31.33;;;5.50;99.90;;;;;;4988967;28;20447;-73
2022/12/02 15:43:13;;;;;;;34.47;32.20;;;5.60;99.90;;;;;;4989116;28;20458;-72
2022/12/02 15:45:40;;;;;;;33.43;31.03;;;5.60;99.90;;;;;;4989108;28;20539;-72
2022/12/02 15:48:07;;;;;;;33.60;30.90;;;5.50;99.90;;;;;;4988838;28;20465;-71
2022/12/02 15:50:33;;;;;;;36.37;33.77;;;5.40;99.90;;;;;;4988777;28;20455;-72
2022/12/02 15:53:00;;;;;;;33.10;30.90;;;5.40;99.90;;;;;;4988990;28;20451;-72
2022/12/02 15:55:27;;;;;;;32.07;29.97;;;5.40;99.90;;;;;;4988841;28;20890;-72
2022/12/02 15:57:53;;;;;;;35.03;32.73;;;5.50;99.90;;;;;;4989098;28;20466;-73
2022/12/02 16:00:22;;;;;;;33.77;31.50;;;5.60;99.90;;;;;;4988716;28;20474;-73
2022/12/02 16:02:49;;;;;;;35.07;32.47;;;5.50;99.90;;;;;;4988871;28;20450;-72
2022/12/02 16:05:15;;;;;;;34.73;32.40;;;5.50;99.90;;;;;;4989097;28;20948;-72
2022/12/02 16:07:42;;;;;;;34.97;32.67;;;5.60;99.90;;;;;;4989992;28;20454;-72
2022/12/02 16:10:09;;;;;;;35.57;33.07;;;5.50;99.90;;;;;;4993006;28;21007;-72